Time,TemperatureF,DewpointF,PressureIn,WindDirection,WindDirectionDegrees,WindSpeedMPH,WindSpeedGustMPH,Humidity,HourlyPrecipIn,Conditions,Clouds,dailyrainin,SoftwareType,DateUTC
2013-01-11 00:02:00,33.8,31.7,31.16,SW,214,0.0,0.0,92,0.00,CLR,CLR,0.00,WeatherDisplay:10.37,2013-01-11 05:02:00,
2013-01-11 00:07:00,33.8,31.7,31.15,SW,214,0.0,0.0,92,0.00,CLR,CLR,0.00,WeatherDisplay:10.37,2013-01-11 05:07:00,
2013-01-11 00:12:00,33.9,32.1,31.14,SW,214,0.0,0.0,93,0.00,CLR,CLR,0.00,WeatherDisplay:10.37,2013-01-11 05:12:00,
2013-01-11 00:17:00,34.0,31.9,31.14,SW,214,0.0,0.0,92,0.00,CLR,CLR,0.00,WeatherDisplay:10.37,2013-01-11 05:17:00,
2013-01-11 00:22:00,34.1,32.0,31.13,SW,214,0.0,0.0,92,0.00,CLR,CLR,0.00,WeatherDisplay:10.37,2013-01-11 05:22:00,
2013-01-11 00:27:00,34.1,32.0,31.14,SW,214,2.0,4.0,92,0.00,CLR,CLR,0.00,WeatherDisplay:10.37,2013-01-11 05:27:00,
2013-01-11 00:32:00,34.0,31.9,31.13,SW,214,0.0,4.0,92,0.00,CLR,CLR,0.00,WeatherDisplay:10.37,2013-01-11 05:32:00,
2013-01-11 00:42:00,34.0,31.9,31.14,SW,214,0.0,2.0,92,0.00,CLR,CLR,0.00,WeatherDisplay:10.37,2013-01-11 05:42:00,
2013-01-11 00:47:00,34.0,31.9,31.14,SW,214,0.0,3.0,92,0.00,CLR,CLR,0.00,WeatherDisplay:10.37,2013-01-11 05:47:00,
2013-01-11 00:52:00,34.1,32.0,31.13,SW,214,0.0,0.0,92,0.00,CLR,CLR,0.00,WeatherDisplay:10.37,2013-01-11 05:52:00,
2013-01-11 00:57:00,34.1,32.0,31.12,SW,214,0.0,0.0,92,0.00,CLR,CLR,0.00,WeatherDisplay:10.37,2013-01-11 05:57:00,
2013-01-11 01:02:00,34.3,31.9,31.13,SW,214,2.0,2.0,91,0.00,CLR,CLR,0.00,WeatherDisplay:10.37,2013-01-11 06:02:00,
2013-01-11 01:07:00,34.4,32.0,31.12,SW,214,0.0,1.0,91,0.00,CLR,CLR,0.00,WeatherDisplay:10.37,2013-01-11 06:07:00,
2013-01-11 01:12:00,34.5,32.1,31.11,SW,214,0.0,0.0,91,0.00,CLR,CLR,0.00,WeatherDisplay:10.37,2013-01-11 06:12:00,
2013-01-11 01:17:00,34.6,31.7,31.11,SW,214,0.0,0.0,89,0.00,CLR,CLR,0.00,WeatherDisplay:10.37,2013-01-11 06:17:00,
2013-01-11 01:21:00,34.9,31.7,31.11,SW,214,2.0,4.0,88,0.00,CLR,CLR,0.00,WeatherDisplay:10.37,2013-01-11 06:21:00,
2013-01-11 01:27:00,35.3,31.8,31.11,SW,214,2.0,4.0,87,0.00,CLR,CLR,0.00,WeatherDisplay:10.37,2013-01-11 06:27:00,
2013-01-11 01:32:00,36.1,31.1,31.11,South,181,2.0,5.0,82,0.00,CLR,CLR,0.00,WeatherDisplay:10.37,2013-01-11 06:32:00,
2013-01-11 01:37:00,37.4,30.9,31.10,SSE,166,2.0,9.0,77,0.00,CLR,CLR,0.00,WeatherDisplay:10.37,2013-01-11 06:37:00,
2013-01-11 01:42:00,38.6,31.0,31.09,South,171,2.0,6.0,74,0.00,CLR,CLR,0.00,WeatherDisplay:10.37,2013-01-11 06:42:00,
2013-01-11 01:47:00,39.3,30.7,31.09,SSE,162,2.0,7.0,71,0.00,CLR,CLR,0.00,WeatherDisplay:10.37,2013-01-11 06:47:00,
2013-01-11 01:52:00,40.0,30.3,31.09,SSE,157,1.0,8.0,68,0.00,CLR,CLR,0.00,WeatherDisplay:10.37,2013-01-11 06:52:00,
2013-01-11 01:57:00,40.5,30.8,31.09,SSE,168,3.0,8.0,68,0.00,CLR,CLR,0.00,WeatherDisplay:10.37,2013-01-11 06:57:00,
2013-01-11 02:02:00,40.7,30.2,31.09,South,169,3.0,7.0,66,0.00,CLR,CLR,0.00,WeatherDisplay:10.37,2013-01-11 07:02:00,
2013-01-11 02:07:00,41.0,30.2,31.09,SSE,162,6.0,12.0,65,0.00,CLR,CLR,0.00,WeatherDisplay:10.37,2013-01-11 07:07:00,
2013-01-11 02:12:00,41.2,30.3,31.09,SSE,160,5.0,8.0,65,0.00,CLR,CLR,0.00,WeatherDisplay:10.37,2013-01-11 07:12:00,
2013-01-11 02:17:00,41.3,30.0,31.09,SSE,168,5.0,6.0,64,0.00,CLR,CLR,0.00,WeatherDisplay:10.37,2013-01-11 07:17:00,
2013-01-11 02:22:00,41.1,30.6,31.09,SSE,158,5.0,7.0,66,0.00,CLR,CLR,0.00,WeatherDisplay:10.37,2013-01-11 07:22:00,
2013-01-11 02:27:00,41.0,30.1,31.09,SSE,161,5.0,8.0,65,0.00,CLR,CLR,0.00,WeatherDisplay:10.37,2013-01-11 07:27:00,
2013-01-11 02:32:00,41.1,30.2,31.09,SSE,151,3.0,8.0,65,0.00,CLR,CLR,0.00,WeatherDisplay:10.37,2013-01-11 07:32:00,
2013-01-11 02:37:00,41.2,30.3,31.09,SE,142,3.0,8.0,65,0.00,CLR,CLR,0.00,WeatherDisplay:10.37,2013-01-11 07:37:00,
2013-01-11 02:42:00,41.4,29.8,31.08,SE,144,1.0,8.0,63,0.00,CLR,CLR,0.00,WeatherDisplay:10.37,2013-01-11 07:42:00,
2013-01-11 02:47:00,41.6,30.3,31.08,SSE,167,5.0,10.0,64,0.00,CLR,CLR,0.00,WeatherDisplay:10.37,2013-01-11 07:47:00,
2013-01-11 02:52:00,41.4,30.1,31.08,SSE,168,3.0,7.0,64,0.00,CLR,CLR,0.00,WeatherDisplay:10.37,2013-01-11 07:52:00,
2013-01-11 02:57:00,41.6,29.9,31.08,SSE,158,3.0,7.0,63,0.00,CLR,CLR,0.00,WeatherDisplay:10.37,2013-01-11 07:57:00,
2013-01-11 03:02:00,41.8,29.7,31.08,SSE,160,5.0,8.0,62,0.00,CLR,CLR,0.00,WeatherDisplay:10.37,2013-01-11 08:02:00,
2013-01-11 03:07:00,41.8,30.1,31.07,SSE,158,5.0,9.0,63,0.00,CLR,CLR,0.00,WeatherDisplay:10.37,2013-01-11 08:07:00,
2013-01-11 03:12:00,41.7,30.4,31.07,SSE,159,3.0,7.0,64,0.00,CLR,CLR,0.00,WeatherDisplay:10.37,2013-01-11 08:12:00,
2013-01-11 03:17:00,41.5,30.2,31.06,SSE,164,5.0,8.0,64,0.00,CLR,CLR,0.00,WeatherDisplay:10.37,2013-01-11 08:17:00,
2013-01-11 03:22:00,41.5,30.6,31.06,SSE,167,6.0,9.0,65,0.00,CLR,CLR,0.00,WeatherDisplay:10.37,2013-01-11 08:22:00,
2013-01-11 03:27:00,41.3,30.4,31.05,SSE,161,5.0,8.0,65,0.00,CLR,CLR,0.00,WeatherDisplay:10.37,2013-01-11 08:27:00,
2013-01-11 03:32:00,41.2,30.7,31.05,SSE,158,3.0,6.0,66,0.00,CLR,CLR,0.00,WeatherDisplay:10.37,2013-01-11 08:32:00,
2013-01-11 03:37:00,40.6,30.9,31.05,South,172,3.0,8.0,68,0.00,CLR,CLR,0.00,WeatherDisplay:10.37,2013-01-11 08:37:00,
2013-01-11 03:42:00,40.1,30.7,31.05,South,183,3.0,5.0,69,0.00,CLR,CLR,0.00,WeatherDisplay:10.37,2013-01-11 08:42:00,
2013-01-11 03:47:00,39.8,30.8,31.05,South,185,1.0,4.0,70,0.00,CLR,CLR,0.00,WeatherDisplay:10.37,2013-01-11 08:47:00,
2013-01-11 03:52:00,39.7,30.7,31.04,South,185,0.0,3.0,70,0.00,CLR,CLR,0.00,WeatherDisplay:10.37,2013-01-11 08:52:00,
2013-01-11 03:57:00,39.8,30.5,31.03,South,173,0.0,5.0,69,0.00,CLR,CLR,0.00,WeatherDisplay:10.37,2013-01-11 08:57:00,
2013-01-11 04:02:00,40.1,30.4,31.03,SSE,153,1.0,4.0,68,0.00,CLR,CLR,0.00,WeatherDisplay:10.37,2013-01-11 09:02:00,
2013-01-11 04:07:00,40.7,30.2,31.03,SSE,153,2.0,4.0,66,0.00,CLR,CLR,0.00,WeatherDisplay:10.37,2013-01-11 09:07:00,
2013-01-11 04:12:00,40.9,30.8,31.03,SSE,154,0.0,4.0,67,0.00,CLR,CLR,0.00,WeatherDisplay:10.37,2013-01-11 09:12:00,
2013-01-11 04:17:00,40.6,30.9,31.02,SSE,154,3.0,5.0,68,0.00,CLR,CLR,0.00,WeatherDisplay:10.37,2013-01-11 09:17:00,
2013-01-11 04:22:00,40.3,31.3,31.02,SSE,165,0.0,5.0,70,0.00,CLR,CLR,0.00,WeatherDisplay:10.37,2013-01-11 09:22:00,
2013-01-11 04:27:00,40.1,30.7,31.01,SSE,166,2.0,4.0,69,0.00,CLR,CLR,0.00,WeatherDisplay:10.37,2013-01-11 09:27:00,
2013-01-11 04:32:00,40.5,30.4,31.01,SSE,156,1.0,5.0,67,0.00,CLR,CLR,0.00,WeatherDisplay:10.37,2013-01-11 09:32:00,
2013-01-11 04:37:00,40.9,30.8,31.01,SSE,164,1.0,5.0,67,0.00,CLR,CLR,0.00,WeatherDisplay:10.37,2013-01-11 09:37:00,
2013-01-11 04:42:00,40.7,31.3,31.00,South,176,1.0,5.0,69,0.00,CLR,CLR,0.00,WeatherDisplay:10.37,2013-01-11 09:42:00,
2013-01-11 04:47:00,40.8,30.7,31.00,SSE,164,1.0,5.0,67,0.00,CLR,CLR,0.00,WeatherDisplay:10.37,2013-01-11 09:47:00,
2013-01-11 04:52:00,41.0,31.2,31.00,SSE,154,0.0,5.0,68,0.00,CLR,CLR,0.00,WeatherDisplay:10.37,2013-01-11 09:52:00,
2013-01-11 04:57:00,41.3,30.8,30.99,SSE,153,1.0,5.0,66,0.00,CLR,CLR,0.00,WeatherDisplay:10.37,2013-01-11 09:57:00,
2013-01-11 05:02:00,41.6,30.7,30.99,SSE,153,1.0,6.0,65,0.00,CLR,CLR,0.00,WeatherDisplay:10.37,2013-01-11 10:02:00,
2013-01-11 05:07:00,41.9,31.0,30.99,SSE,149,0.0,5.0,65,0.00,CLR,CLR,0.00,WeatherDisplay:10.37,2013-01-11 10:07:00,
2013-01-11 05:12:00,42.0,31.1,30.99,SSE,157,3.0,7.0,65,0.00,CLR,CLR,0.00,WeatherDisplay:10.37,2013-01-11 10:12:00,
2013-01-11 05:17:00,41.8,30.9,30.99,SSE,163,5.0,6.0,65,0.00,CLR,CLR,0.00,WeatherDisplay:10.37,2013-01-11 10:17:00,
2013-01-11 05:22:00,41.9,31.0,30.98,SSE,151,1.0,6.0,65,0.00,CLR,CLR,0.00,WeatherDisplay:10.37,2013-01-11 10:22:00,
2013-01-11 05:27:00,42.0,31.1,30.98,SE,140,1.0,5.0,65,0.00,CLR,CLR,0.00,WeatherDisplay:10.37,2013-01-11 10:27:00,
2013-01-11 05:32:00,42.0,31.4,30.98,SSE,163,3.0,6.0,66,0.00,CLR,CLR,0.00,WeatherDisplay:10.37,2013-01-11 10:32:00,
2013-01-11 05:37:00,41.8,31.6,30.98,SSE,166,3.0,6.0,67,0.00,CLR,CLR,0.00,WeatherDisplay:10.37,2013-01-11 10:37:00,
2013-01-11 05:42:00,42.0,31.8,30.98,SSE,161,2.0,6.0,67,0.00,CLR,CLR,0.00,WeatherDisplay:10.37,2013-01-11 10:42:00,
2013-01-11 05:47:00,42.2,31.7,30.98,SSE,166,3.0,7.0,66,0.00,CLR,CLR,0.00,WeatherDisplay:10.37,2013-01-11 10:47:00,
2013-01-11 05:52:00,42.4,32.2,30.97,South,172,2.0,7.0,67,0.00,CLR,CLR,0.00,WeatherDisplay:10.37,2013-01-11 10:52:00,
2013-01-11 05:57:00,42.6,32.4,30.97,SSE,164,3.0,10.0,67,0.00,CLR,CLR,0.00,WeatherDisplay:10.37,2013-01-11 10:57:00,
2013-01-11 06:02:00,42.8,32.2,30.97,SSE,165,7.0,10.0,66,0.00,CLR,CLR,0.00,WeatherDisplay:10.37,2013-01-11 11:02:00,
2013-01-11 06:07:00,42.8,32.6,30.97,South,173,5.0,8.0,67,0.00,CLR,CLR,0.00,WeatherDisplay:10.37,2013-01-11 11:07:00,
2013-01-11 06:12:00,42.8,32.2,30.96,South,171,5.0,12.0,66,0.00,CLR,CLR,0.00,WeatherDisplay:10.37,2013-01-11 11:12:00,
2013-01-11 06:17:00,43.0,32.4,30.96,South,169,5.0,9.0,66,0.00,CLR,CLR,0.00,WeatherDisplay:10.37,2013-01-11 11:17:00,
2013-01-11 06:22:00,42.8,32.6,30.96,South,172,7.0,10.0,67,0.00,CLR,CLR,0.00,WeatherDisplay:10.37,2013-01-11 11:22:00,
2013-01-11 06:27:00,42.7,32.5,30.96,SSE,168,5.0,10.0,67,0.00,CLR,CLR,0.00,WeatherDisplay:10.37,2013-01-11 11:27:00,
2013-01-11 06:32:00,42.9,32.7,30.96,SSE,161,7.0,10.0,67,0.00,CLR,CLR,0.00,WeatherDisplay:10.37,2013-01-11 11:32:00,
2013-01-11 06:37:00,42.8,33.0,30.96,South,170,8.0,13.0,68,0.00,CLR,CLR,0.00,WeatherDisplay:10.37,2013-01-11 11:37:00,
2013-01-11 06:42:00,42.8,33.0,30.96,South,171,6.0,10.0,68,0.00,CLR,CLR,0.00,WeatherDisplay:10.37,2013-01-11 11:42:00,
2013-01-11 06:47:00,43.1,32.8,30.96,SSE,163,7.0,12.0,67,0.00,CLR,CLR,0.00,WeatherDisplay:10.37,2013-01-11 11:47:00,
2013-01-11 06:52:00,43.1,32.9,30.95,SSE,163,5.0,8.0,67,0.00,CLR,CLR,0.00,WeatherDisplay:10.37,2013-01-11 11:52:00,
2013-01-11 06:57:00,43.0,33.2,30.95,SSE,163,8.0,12.0,68,0.00,CLR,CLR,0.00,WeatherDisplay:10.37,2013-01-11 11:57:00,
2013-01-11 07:02:00,43.1,33.3,30.95,SSE,160,5.0,7.0,68,0.00,CLR,CLR,0.00,WeatherDisplay:10.37,2013-01-11 12:02:00,
2013-01-11 07:07:00,43.0,33.2,30.95,SSE,163,3.0,7.0,68,0.00,CLR,CLR,0.00,WeatherDisplay:10.37,2013-01-11 12:07:00,
2013-01-11 07:12:00,43.1,33.2,30.94,SSE,164,6.0,7.0,68,0.00,CLR,CLR,0.00,WeatherDisplay:10.37,2013-01-11 12:12:00,
2013-01-11 07:17:00,43.0,33.5,30.94,SSE,165,2.0,6.0,69,0.00,CLR,CLR,0.00,WeatherDisplay:10.37,2013-01-11 12:17:00,
2013-01-11 07:22:00,43.1,33.6,30.94,SSE,158,5.0,8.0,69,0.00,CLR,CLR,0.00,WeatherDisplay:10.37,2013-01-11 12:22:00,
2013-01-11 07:27:00,43.2,33.7,30.94,SSE,161,3.0,7.0,69,0.00,CLR,CLR,0.00,WeatherDisplay:10.37,2013-01-11 12:27:00,
2013-01-11 07:32:00,43.0,33.9,30.94,SSE,166,2.0,7.0,70,0.00,CLR,CLR,0.00,WeatherDisplay:10.37,2013-01-11 12:32:00,
2013-01-11 07:37:00,43.0,34.3,30.94,SSE,162,5.0,8.0,71,0.00,CLR,CLR,0.00,WeatherDisplay:10.37,2013-01-11 12:37:00,
2013-01-11 07:42:00,43.2,34.7,30.95,South,171,7.0,12.0,72,0.00,CLR,CLR,0.00,WeatherDisplay:10.37,2013-01-11 12:42:00,
2013-01-11 07:52:00,43.4,34.9,30.94,South,170,3.0,7.0,72,0.00,CLR,CLR,0.00,WeatherDisplay:10.37,2013-01-11 12:52:00,
2013-01-11 07:57:00,43.3,35.2,30.94,SSE,167,2.0,8.0,73,0.00,CLR,CLR,0.00,WeatherDisplay:10.37,2013-01-11 12:57:00,
2013-01-11 08:02:00,43.5,35.4,30.94,SSE,159,3.0,6.0,73,0.00,CLR,CLR,0.00,WeatherDisplay:10.37,2013-01-11 13:02:00,
2013-01-11 08:07:00,43.6,35.9,30.94,SSE,151,1.0,5.0,74,0.00,CLR,CLR,0.00,WeatherDisplay:10.37,2013-01-11 13:07:00,
2013-01-11 08:12:00,43.5,36.1,30.93,SE,145,3.0,8.0,75,0.00,CLR,CLR,0.00,WeatherDisplay:10.37,2013-01-11 13:12:00,
2013-01-11 08:17:00,43.4,36.4,30.93,SE,136,6.0,7.0,76,0.00,CLR,CLR,0.00,WeatherDisplay:10.37,2013-01-11 13:17:00,
2013-01-11 08:22:00,43.6,36.2,30.93,SE,146,3.0,7.0,75,0.00,CLR,CLR,0.00,WeatherDisplay:10.37,2013-01-11 13:22:00,
2013-01-11 08:27:00,43.6,36.6,30.93,SSE,147,3.0,9.0,76,0.00,CLR,CLR,0.00,WeatherDisplay:10.37,2013-01-11 13:27:00,
2013-01-11 08:32:00,43.8,36.4,30.92,SE,146,3.0,8.0,75,0.00,CLR,CLR,0.00,WeatherDisplay:10.37,2013-01-11 13:32:00,
2013-01-11 08:37:00,44.0,36.6,30.92,SSE,152,5.0,8.0,75,0.00,CLR,CLR,0.00,WeatherDisplay:10.37,2013-01-11 13:37:00,
2013-01-11 08:42:00,44.1,36.7,30.91,SSE,157,0.0,6.0,75,0.00,CLR,CLR,0.00,WeatherDisplay:10.37,2013-01-11 13:42:00,
2013-01-11 08:47:00,44.0,36.6,30.91,SSE,159,0.0,5.0,75,0.00,CLR,CLR,0.00,WeatherDisplay:10.37,2013-01-11 13:47:00,
2013-01-11 08:52:00,44.1,36.6,30.91,SSE,158,0.0,4.0,75,0.00,CLR,CLR,0.00,WeatherDisplay:10.37,2013-01-11 13:52:00,
2013-01-11 08:57:00,44.0,36.9,30.91,South,174,3.0,7.0,76,0.00,CLR,CLR,0.00,WeatherDisplay:10.37,2013-01-11 13:57:00,
2013-01-11 09:02:00,43.7,36.6,30.91,South,178,3.0,8.0,76,0.00,CLR,CLR,0.00,WeatherDisplay:10.37,2013-01-11 14:02:00,
2013-01-11 09:07:00,43.6,36.8,30.91,South,172,1.0,7.0,77,0.00,CLR,CLR,0.00,WeatherDisplay:10.37,2013-01-11 14:07:00,
2013-01-11 09:12:00,43.8,37.0,30.91,SSE,158,0.0,5.0,77,0.00,CLR,CLR,0.00,WeatherDisplay:10.37,2013-01-11 14:12:00,
2013-01-11 09:17:00,44.1,37.4,30.91,SSE,148,3.0,6.0,77,0.00,CLR,CLR,0.00,WeatherDisplay:10.37,2013-01-11 14:17:00,
2013-01-11 09:22:00,44.5,37.4,30.90,SSE,150,1.0,7.0,76,0.00,CLR,CLR,0.00,WeatherDisplay:10.37,2013-01-11 14:22:00,
2013-01-11 09:27:00,44.9,37.8,30.90,SE,137,0.0,8.0,76,0.00,CLR,CLR,0.00,WeatherDisplay:10.37,2013-01-11 14:27:00,
2013-01-11 09:32:00,45.1,37.6,30.90,SSE,149,5.0,8.0,75,0.00,CLR,CLR,0.00,WeatherDisplay:10.37,2013-01-11 14:32:00,
2013-01-11 09:37:00,45.0,38.2,30.90,SSE,153,3.0,7.0,77,0.00,CLR,CLR,0.00,WeatherDisplay:10.37,2013-01-11 14:37:00,
2013-01-11 09:42:00,45.0,38.6,30.89,SSE,148,0.0,6.0,78,0.01,RA,RA,0.01,WeatherDisplay:10.37,2013-01-11 14:42:00,
2013-01-11 09:47:00,44.9,38.8,30.89,SE,137,0.0,5.0,79,0.00,RA,RA,0.01,WeatherDisplay:10.37,2013-01-11 14:47:00,
2013-01-11 09:52:00,44.8,39.3,30.89,SE,145,2.0,7.0,81,0.01,RA,RA,0.02,WeatherDisplay:10.37,2013-01-11 14:52:00,
2013-01-11 09:57:00,44.6,39.4,30.89,SSE,154,1.0,6.0,82,0.01,RA,RA,0.03,WeatherDisplay:10.37,2013-01-11 14:57:00,
2013-01-11 10:02:00,44.2,39.7,30.88,SSE,153,1.0,6.0,84,0.01,RA,RA,0.04,WeatherDisplay:10.37,2013-01-11 15:02:00,
2013-01-11 10:07:00,43.9,40.0,30.88,SSE,148,1.0,6.0,86,0.02,RA,RA,0.06,WeatherDisplay:10.37,2013-01-11 15:07:00,
2013-01-11 10:12:00,43.6,40.0,30.88,SSE,164,1.0,7.0,87,0.02,RA,RA,0.09,WeatherDisplay:10.37,2013-01-11 15:12:00,
2013-01-11 10:16:00,43.1,39.8,30.88,SSE,164,1.0,5.0,88,0.02,RA,RA,0.11,WeatherDisplay:10.37,2013-01-11 15:16:00,
2013-01-11 10:21:00,42.8,39.8,30.88,SE,140,2.0,7.0,89,0.01,RA,RA,0.12,WeatherDisplay:10.37,2013-01-11 15:21:00,
2013-01-11 10:27:00,42.9,40.5,30.87,SE,132,2.0,6.0,91,0.01,RA,RA,0.13,WeatherDisplay:10.37,2013-01-11 15:27:00,
2013-01-11 10:32:00,42.9,40.5,30.87,SSE,149,2.0,7.0,91,0.00,RA,RA,0.13,WeatherDisplay:10.37,2013-01-11 15:32:00,
2013-01-11 10:37:00,42.8,40.3,30.88,South,169,2.0,6.0,91,0.01,RA,RA,0.14,WeatherDisplay:10.37,2013-01-11 15:37:00,
2013-01-11 10:42:00,42.5,40.3,30.87,South,173,0.0,4.0,92,0.00,RA,RA,0.14,WeatherDisplay:10.37,2013-01-11 15:42:00,
2013-01-11 10:47:00,42.6,40.4,30.87,SSE,162,3.0,5.0,92,0.02,RA,RA,0.16,WeatherDisplay:10.37,2013-01-11 15:47:00,
2013-01-11 10:52:00,42.7,40.8,30.87,SSE,155,1.0,6.0,93,0.01,RA,RA,0.17,WeatherDisplay:10.37,2013-01-11 15:52:00,
2013-01-11 10:57:00,42.8,40.9,30.86,SSE,163,3.0,6.0,93,0.02,RA,RA,0.20,WeatherDisplay:10.37,2013-01-11 15:57:00,
2013-01-11 11:02:00,42.8,40.9,30.87,SSE,168,3.0,8.0,93,0.02,RA,RA,0.22,WeatherDisplay:10.37,2013-01-11 16:02:00,
2013-01-11 11:07:00,42.5,40.6,30.87,South,170,3.0,9.0,93,0.03,RA,RA,0.25,WeatherDisplay:10.37,2013-01-11 16:07:00,
2013-01-11 11:12:00,42.5,40.9,30.85,SSE,162,1.0,7.0,94,0.02,RA,RA,0.27,WeatherDisplay:10.37,2013-01-11 16:12:00,
2013-01-11 11:17:00,42.6,41.0,30.85,SSE,155,6.0,8.0,94,0.02,RA,RA,0.29,WeatherDisplay:10.37,2013-01-11 16:17:00,
2013-01-11 11:22:00,42.6,41.0,30.83,SSE,157,5.0,7.0,94,0.04,RA,RA,0.34,WeatherDisplay:10.37,2013-01-11 16:22:00,
2013-01-11 11:27:00,42.8,41.4,30.83,SE,143,7.0,15.0,95,0.05,RA,RA,0.39,WeatherDisplay:10.37,2013-01-11 16:27:00,
2013-01-11 11:32:00,43.0,41.7,30.84,SSE,147,6.0,7.0,95,0.05,RA,RA,0.45,WeatherDisplay:10.37,2013-01-11 16:32:00,
2013-01-11 11:37:00,43.0,41.6,30.82,SE,130,3.0,12.0,95,0.02,RA,RA,0.47,WeatherDisplay:10.37,2013-01-11 16:37:00,
2013-01-11 11:42:00,43.0,41.7,30.83,SE,139,5.0,8.0,95,0.01,RA,RA,0.48,WeatherDisplay:10.37,2013-01-11 16:42:00,
2013-01-11 11:47:00,42.9,41.6,30.83,South,172,5.0,9.0,95,0.01,RA,RA,0.49,WeatherDisplay:10.37,2013-01-11 16:47:00,
2013-01-11 11:52:00,43.0,41.7,30.82,SSE,155,0.0,12.0,95,0.00,RA,RA,0.49,WeatherDisplay:10.37,2013-01-11 16:52:00,
2013-01-11 11:57:00,43.1,41.8,30.82,SE,145,3.0,7.0,95,0.01,RA,RA,0.50,WeatherDisplay:10.37,2013-01-11 16:57:00,
2013-01-11 12:02:00,42.9,41.5,30.82,SSE,167,5.0,6.0,95,0.00,RA,RA,0.50,WeatherDisplay:10.37,2013-01-11 17:02:00,
2013-01-11 12:07:00,42.6,41.3,30.82,South,169,2.0,7.0,95,0.00,,,0.50,WeatherDisplay:10.37,2013-01-11 17:07:00,
2013-01-11 12:12:00,42.8,41.7,30.81,SSE,165,5.0,7.0,96,0.00,CLR,CLR,0.50,WeatherDisplay:10.37,2013-01-11 17:12:00,
2013-01-11 12:17:00,42.9,41.8,30.81,SSE,151,1.0,5.0,96,0.00,CLR,CLR,0.50,WeatherDisplay:10.37,2013-01-11 17:17:00,
2013-01-11 12:22:00,43.1,42.0,30.80,SSE,157,2.0,8.0,96,0.00,CLR,CLR,0.50,WeatherDisplay:10.37,2013-01-11 17:22:00,
2013-01-11 12:27:00,43.2,42.1,30.78,SSE,153,6.0,8.0,96,0.01,RA,RA,0.51,WeatherDisplay:10.37,2013-01-11 17:27:00,
2013-01-11 12:32:00,43.3,42.3,30.76,SE,133,6.0,12.0,96,0.00,RA,RA,0.51,WeatherDisplay:10.37,2013-01-11 17:32:00,
2013-01-11 12:37:00,43.3,42.3,30.77,SE,140,5.0,9.0,96,0.01,RA,RA,0.52,WeatherDisplay:10.37,2013-01-11 17:37:00,
2013-01-11 12:42:00,43.5,42.4,30.77,SSE,154,7.0,12.0,96,0.00,RA,RA,0.52,WeatherDisplay:10.37,2013-01-11 17:42:00,
2013-01-11 12:47:00,43.8,42.7,30.76,SSE,157,5.0,16.0,96,0.00,CLR,CLR,0.52,WeatherDisplay:10.37,2013-01-11 17:47:00,
2013-01-11 12:52:00,43.9,42.8,30.77,SSE,163,7.0,16.0,96,0.00,CLR,CLR,0.52,WeatherDisplay:10.37,2013-01-11 17:52:00,
2013-01-11 12:57:00,44.0,42.9,30.76,South,169,7.0,12.0,96,0.01,RA,RA,0.53,WeatherDisplay:10.37,2013-01-11 17:57:00,
2013-01-11 13:02:00,44.1,43.0,30.72,SE,141,2.0,7.0,96,0.00,RA,RA,0.53,WeatherDisplay:10.37,2013-01-11 18:02:00,
2013-01-11 13:07:00,44.4,43.4,30.73,SE,138,8.0,12.0,96,0.00,,,0.53,WeatherDisplay:10.37,2013-01-11 18:07:00,
2013-01-11 13:12:00,44.7,43.9,30.73,SSE,163,6.0,12.0,97,0.00,CLR,CLR,0.53,WeatherDisplay:10.37,2013-01-11 18:12:00,
2013-01-11 13:17:00,45.1,44.3,30.73,SSE,163,6.0,8.0,97,0.00,CLR,CLR,0.53,WeatherDisplay:10.37,2013-01-11 18:17:00,
2013-01-11 13:27:00,45.3,44.5,30.74,SSE,167,6.0,12.0,97,0.00,CLR,CLR,0.53,WeatherDisplay:10.37,2013-01-11 18:27:00,
2013-01-11 13:32:00,45.8,45.0,30.74,SSE,166,6.0,13.0,97,0.00,CLR,CLR,0.53,WeatherDisplay:10.37,2013-01-11 18:32:00,
2013-01-11 13:37:00,46.1,45.3,30.74,South,177,7.0,12.0,97,0.00,CLR,CLR,0.53,WeatherDisplay:10.37,2013-01-11 18:37:00,
2013-01-11 13:42:00,46.2,45.1,30.75,South,184,8.0,12.0,96,0.00,CLR,CLR,0.53,WeatherDisplay:10.37,2013-01-11 18:42:00,
2013-01-11 13:47:00,46.3,45.5,30.75,South,184,6.0,12.0,97,0.00,CLR,CLR,0.53,WeatherDisplay:10.37,2013-01-11 18:47:00,
2013-01-11 13:52:00,46.5,45.7,30.75,South,183,6.0,12.0,97,0.00,CLR,CLR,0.53,WeatherDisplay:10.37,2013-01-11 18:52:00,
2013-01-11 13:57:00,46.9,46.1,30.76,South,183,8.0,13.0,97,0.00,CLR,CLR,0.53,WeatherDisplay:10.37,2013-01-11 18:57:00,
2013-01-11 14:02:00,46.9,45.8,30.76,South,188,5.0,12.0,96,0.00,CLR,CLR,0.53,WeatherDisplay:10.37,2013-01-11 19:02:00,
2013-01-11 14:07:00,47.1,46.0,30.77,South,191,5.0,10.0,96,0.00,CLR,CLR,0.53,WeatherDisplay:10.37,2013-01-11 19:07:00,
2013-01-11 14:12:00,47.3,46.2,30.77,South,187,6.0,9.0,96,0.00,CLR,CLR,0.53,WeatherDisplay:10.37,2013-01-11 19:12:00,
2013-01-11 14:17:00,47.3,46.3,30.77,SSW,196,3.0,12.0,96,0.00,CLR,CLR,0.53,WeatherDisplay:10.37,2013-01-11 19:17:00,
2013-01-11 14:22:00,46.9,45.8,30.77,SSW,201,1.0,6.0,96,0.00,CLR,CLR,0.53,WeatherDisplay:10.37,2013-01-11 19:22:00,
2013-01-11 14:27:00,46.9,45.8,30.77,SSW,200,2.0,7.0,96,0.00,CLR,CLR,0.53,WeatherDisplay:10.37,2013-01-11 19:27:00,
2013-01-11 14:32:00,46.7,45.7,30.77,SSW,204,3.0,7.0,96,0.00,CLR,CLR,0.53,WeatherDisplay:10.37,2013-01-11 19:32:00,
2013-01-11 14:37:00,46.5,45.4,30.77,SSW,201,3.0,5.0,96,0.00,CLR,CLR,0.53,WeatherDisplay:10.37,2013-01-11 19:37:00,
2013-01-11 14:42:00,46.4,45.4,30.77,South,177,3.0,5.0,96,0.00,CLR,CLR,0.53,WeatherDisplay:10.37,2013-01-11 19:42:00,
2013-01-11 14:47:00,46.9,45.8,30.77,SSE,167,6.0,9.0,96,0.00,CLR,CLR,0.53,WeatherDisplay:10.37,2013-01-11 19:47:00,
2013-01-11 14:52:00,47.1,46.3,30.77,SSE,167,6.0,9.0,97,0.00,CLR,CLR,0.53,WeatherDisplay:10.37,2013-01-11 19:52:00,
2013-01-11 14:57:00,47.3,46.5,30.77,South,169,6.0,9.0,97,0.00,CLR,CLR,0.53,WeatherDisplay:10.37,2013-01-11 19:57:00,
2013-01-11 15:02:00,46.9,45.9,30.77,SSE,168,3.0,6.0,96,0.00,CLR,CLR,0.53,WeatherDisplay:10.37,2013-01-11 20:02:00,
2013-01-11 15:07:00,46.9,45.8,30.77,South,171,3.0,8.0,96,0.00,CLR,CLR,0.53,WeatherDisplay:10.37,2013-01-11 20:07:00,
2013-01-11 15:12:00,46.8,45.7,30.77,South,176,5.0,7.0,96,0.00,CLR,CLR,0.53,WeatherDisplay:10.37,2013-01-11 20:12:00,
2013-01-11 15:17:00,46.4,45.3,30.77,South,183,2.0,5.0,96,0.00,CLR,CLR,0.53,WeatherDisplay:10.37,2013-01-11 20:17:00,
2013-01-11 15:22:00,46.4,45.3,30.77,South,186,5.0,8.0,96,0.00,CLR,CLR,0.53,WeatherDisplay:10.37,2013-01-11 20:22:00,
2013-01-11 15:27:00,46.4,45.6,30.77,South,178,5.0,7.0,97,0.00,CLR,CLR,0.53,WeatherDisplay:10.37,2013-01-11 20:27:00,
2013-01-11 15:32:00,46.2,45.1,30.77,South,174,2.0,5.0,96,0.00,CLR,CLR,0.53,WeatherDisplay:10.37,2013-01-11 20:32:00,
2013-01-11 15:37:00,46.1,45.0,30.77,South,171,1.0,5.0,96,0.00,CLR,CLR,0.53,WeatherDisplay:10.37,2013-01-11 20:37:00,
2013-01-11 15:42:00,46.3,45.5,30.77,SSE,163,3.0,6.0,97,0.00,CLR,CLR,0.53,WeatherDisplay:10.37,2013-01-11 20:42:00,
2013-01-11 15:47:00,46.5,45.7,30.76,South,169,2.0,5.0,97,0.00,CLR,CLR,0.53,WeatherDisplay:10.37,2013-01-11 20:47:00,
2013-01-11 15:52:00,46.2,45.4,30.77,South,177,3.0,5.0,97,0.00,CLR,CLR,0.53,WeatherDisplay:10.37,2013-01-11 20:52:00,
2013-01-11 15:57:00,46.0,44.9,30.76,South,175,2.0,5.0,96,0.00,CLR,CLR,0.53,WeatherDisplay:10.37,2013-01-11 20:57:00,
2013-01-11 16:02:00,46.0,45.2,30.76,South,175,2.0,6.0,97,0.00,CLR,CLR,0.53,WeatherDisplay:10.37,2013-01-11 21:02:00,
2013-01-11 16:07:00,46.1,45.3,30.77,South,175,3.0,6.0,97,0.00,CLR,CLR,0.53,WeatherDisplay:10.37,2013-01-11 21:07:00,
2013-01-11 16:12:00,46.0,45.2,30.77,South,179,2.0,5.0,97,0.00,CLR,CLR,0.53,WeatherDisplay:10.37,2013-01-11 21:12:00,
2013-01-11 16:17:00,45.9,45.1,30.77,South,186,1.0,4.0,97,0.00,CLR,CLR,0.53,WeatherDisplay:10.37,2013-01-11 21:17:00,
2013-01-11 16:22:00,46.2,45.4,30.77,SSW,193,2.0,5.0,97,0.00,CLR,CLR,0.53,WeatherDisplay:10.37,2013-01-11 21:22:00,
2013-01-11 16:27:00,46.6,45.8,30.77,SSW,205,0.0,4.0,97,0.00,CLR,CLR,0.53,WeatherDisplay:10.37,2013-01-11 21:27:00,
2013-01-11 16:32:00,46.5,45.6,30.77,SW,214,0.0,3.0,97,0.00,CLR,CLR,0.53,WeatherDisplay:10.37,2013-01-11 21:32:00,
2013-01-11 16:37:00,46.0,45.2,30.78,SW,215,0.0,1.0,97,0.00,CLR,CLR,0.53,WeatherDisplay:10.37,2013-01-11 21:37:00,
2013-01-11 16:42:00,45.8,44.7,30.78,SW,215,2.0,4.0,96,0.00,CLR,CLR,0.53,WeatherDisplay:10.37,2013-01-11 21:42:00,
2013-01-11 16:47:00,45.5,44.4,30.78,SW,215,0.0,3.0,96,0.00,CLR,CLR,0.53,WeatherDisplay:10.37,2013-01-11 21:47:00,
2013-01-11 16:52:00,45.2,44.2,30.78,SW,215,0.0,3.0,96,0.00,CLR,CLR,0.53,WeatherDisplay:10.37,2013-01-11 21:52:00,
2013-01-11 16:57:00,45.0,43.9,30.78,SW,215,1.0,4.0,96,0.00,CLR,CLR,0.53,WeatherDisplay:10.37,2013-01-11 21:57:00,
2013-01-11 17:02:00,44.3,43.2,30.79,SW,215,0.0,0.0,96,0.00,CLR,CLR,0.53,WeatherDisplay:10.37,2013-01-11 22:02:00,
2013-01-11 17:07:00,43.3,41.9,30.78,SW,215,0.0,2.0,95,0.00,CLR,CLR,0.53,WeatherDisplay:10.37,2013-01-11 22:07:00,
2013-01-11 17:12:00,42.4,41.0,30.79,SW,215,0.0,0.0,95,0.00,CLR,CLR,0.53,WeatherDisplay:10.37,2013-01-11 22:12:00,
2013-01-11 17:17:00,41.8,40.5,30.79,SW,215,2.0,3.0,95,0.00,CLR,CLR,0.53,WeatherDisplay:10.37,2013-01-11 22:17:00,
2013-01-11 17:22:00,41.0,39.7,30.79,SW,215,0.0,2.0,95,0.00,CLR,CLR,0.53,WeatherDisplay:10.37,2013-01-11 22:22:00,
2013-01-11 17:27:00,40.5,39.1,30.79,SW,215,0.0,0.0,95,0.00,CLR,CLR,0.53,WeatherDisplay:10.37,2013-01-11 22:27:00,
2013-01-11 17:32:00,40.5,39.4,30.80,SW,215,0.0,0.0,96,0.00,CLR,CLR,0.53,WeatherDisplay:10.37,2013-01-11 22:32:00,
2013-01-11 17:37:00,40.6,39.8,30.79,SW,215,0.0,1.0,97,0.00,CLR,CLR,0.53,WeatherDisplay:10.37,2013-01-11 22:37:00,
2013-01-11 17:42:00,40.0,39.0,30.80,SW,215,0.0,0.0,96,0.00,CLR,CLR,0.53,WeatherDisplay:10.37,2013-01-11 22:42:00,
2013-01-11 17:47:00,39.4,38.4,30.80,SW,215,2.0,3.0,96,0.00,CLR,CLR,0.53,WeatherDisplay:10.37,2013-01-11 22:47:00,
2013-01-11 17:52:00,38.7,37.4,30.80,SW,215,0.0,1.0,95,0.00,CLR,CLR,0.53,WeatherDisplay:10.37,2013-01-11 22:52:00,
2013-01-11 17:57:00,38.3,37.3,30.81,SW,215,0.0,0.0,96,0.00,CLR,CLR,0.53,WeatherDisplay:10.37,2013-01-11 22:57:00,
2013-01-11 18:02:00,38.2,37.2,30.81,SW,215,0.0,0.0,96,0.00,CLR,CLR,0.53,WeatherDisplay:10.37,2013-01-11 23:02:00,
2013-01-11 18:07:00,38.3,37.3,30.81,SW,215,0.0,0.0,96,0.00,CLR,CLR,0.53,WeatherDisplay:10.37,2013-01-11 23:07:00,
2013-01-11 18:12:00,38.4,37.6,30.81,SW,215,0.0,0.0,97,0.00,CLR,CLR,0.53,WeatherDisplay:10.37,2013-01-11 23:12:00,
2013-01-11 18:17:00,38.6,37.8,30.81,SW,215,0.0,0.0,97,0.00,CLR,CLR,0.53,WeatherDisplay:10.37,2013-01-11 23:17:00,
2013-01-11 18:22:00,38.5,37.7,30.81,SW,215,0.0,0.0,97,0.00,CLR,CLR,0.53,WeatherDisplay:10.37,2013-01-11 23:22:00,
2013-01-11 18:27:00,38.2,37.4,30.81,SW,215,0.0,0.0,97,0.00,CLR,CLR,0.53,WeatherDisplay:10.37,2013-01-11 23:27:00,
2013-01-11 18:32:00,37.5,36.5,30.82,SW,215,0.0,0.0,96,0.00,CLR,CLR,0.53,WeatherDisplay:10.37,2013-01-11 23:32:00,
2013-01-11 18:37:00,36.8,35.8,30.82,SW,215,0.0,0.0,96,0.00,CLR,CLR,0.53,WeatherDisplay:10.37,2013-01-11 23:37:00,
2013-01-11 18:42:00,36.6,35.6,30.82,SW,215,0.0,0.0,96,0.00,CLR,CLR,0.53,WeatherDisplay:10.37,2013-01-11 23:42:00,
2013-01-11 18:47:00,37.0,36.2,30.82,SW,215,0.0,0.0,97,0.00,CLR,CLR,0.53,WeatherDisplay:10.37,2013-01-11 23:47:00,
2013-01-11 18:52:00,37.3,36.5,30.82,SW,215,0.0,0.0,97,0.00,CLR,CLR,0.53,WeatherDisplay:10.37,2013-01-11 23:52:00,
2013-01-11 18:57:00,37.4,36.6,30.82,SW,215,0.0,0.0,97,0.00,CLR,CLR,0.53,WeatherDisplay:10.37,2013-01-11 23:57:00,
2013-01-11 19:02:00,37.5,36.7,30.82,SW,215,0.0,0.0,97,0.00,CLR,CLR,0.53,WeatherDisplay:10.37,2013-01-12 00:02:00,
2013-01-11 19:07:00,37.3,36.6,30.82,SW,215,0.0,0.0,97,0.00,CLR,CLR,0.53,WeatherDisplay:10.37,2013-01-12 00:07:00,
2013-01-11 19:12:00,36.7,35.7,30.83,SW,215,0.0,0.0,96,0.00,CLR,CLR,0.53,WeatherDisplay:10.37,2013-01-12 00:12:00,
2013-01-11 19:17:00,35.8,34.8,30.83,SW,215,0.0,0.0,96,0.00,CLR,CLR,0.53,WeatherDisplay:10.37,2013-01-12 00:17:00,
2013-01-11 19:22:00,35.3,34.3,30.83,SW,215,0.0,0.0,96,0.00,CLR,CLR,0.53,WeatherDisplay:10.37,2013-01-12 00:22:00,
2013-01-11 19:27:00,35.3,34.3,30.83,SW,215,0.0,0.0,96,0.00,CLR,CLR,0.53,WeatherDisplay:10.37,2013-01-12 00:27:00,
2013-01-11 19:31:00,35.2,34.2,30.83,SW,215,0.0,0.0,96,0.00,CLR,CLR,0.53,WeatherDisplay:10.37,2013-01-12 00:31:00,
2013-01-11 19:37:00,35.0,34.0,30.83,SW,215,0.0,0.0,96,0.00,CLR,CLR,0.53,WeatherDisplay:10.37,2013-01-12 00:37:00,
2013-01-11 19:42:00,34.8,34.0,30.83,SW,215,0.0,0.0,97,0.00,CLR,CLR,0.53,WeatherDisplay:10.37,2013-01-12 00:42:00,
2013-01-11 19:47:00,34.7,33.7,30.83,SW,215,0.0,0.0,96,0.00,CLR,CLR,0.53,WeatherDisplay:10.37,2013-01-12 00:47:00,
2013-01-11 19:52:00,34.5,33.5,30.83,SW,215,0.0,0.0,96,0.00,CLR,CLR,0.53,WeatherDisplay:10.37,2013-01-12 00:52:00,
2013-01-11 19:57:00,34.5,33.7,30.83,SW,215,0.0,0.0,97,0.00,CLR,CLR,0.53,WeatherDisplay:10.37,2013-01-12 00:57:00,
2013-01-11 20:02:00,34.4,33.6,30.83,SW,215,0.0,0.0,97,0.00,CLR,CLR,0.53,WeatherDisplay:10.37,2013-01-12 01:02:00,
2013-01-11 20:07:00,34.4,33.6,30.83,SW,215,0.0,1.0,97,0.00,CLR,CLR,0.53,WeatherDisplay:10.37,2013-01-12 01:07:00,
2013-01-11 20:12:00,34.6,33.8,30.83,SW,215,0.0,2.0,97,0.00,CLR,CLR,0.53,WeatherDisplay:10.37,2013-01-12 01:12:00,
2013-01-11 20:17:00,34.6,33.8,30.83,SW,215,0.0,0.0,97,0.00,CLR,CLR,0.53,WeatherDisplay:10.37,2013-01-12 01:17:00,
2013-01-11 20:22:00,34.5,33.8,30.83,SW,215,0.0,0.0,97,0.00,CLR,CLR,0.53,WeatherDisplay:10.37,2013-01-12 01:22:00,
2013-01-11 20:27:00,34.6,33.8,30.83,SW,215,0.0,0.0,97,0.00,CLR,CLR,0.53,WeatherDisplay:10.37,2013-01-12 01:27:00,
2013-01-11 20:32:00,34.6,33.8,30.84,SW,215,0.0,0.0,97,0.00,CLR,CLR,0.53,WeatherDisplay:10.37,2013-01-12 01:32:00,
2013-01-11 20:37:00,34.7,33.9,30.84,SW,215,0.0,0.0,97,0.00,CLR,CLR,0.53,WeatherDisplay:10.37,2013-01-12 01:37:00,
2013-01-11 20:42:00,34.6,33.9,30.84,SW,215,0.0,0.0,97,0.00,CLR,CLR,0.53,WeatherDisplay:10.37,2013-01-12 01:42:00,
2013-01-11 20:47:00,34.7,33.9,30.84,SW,215,0.0,0.0,97,0.00,CLR,CLR,0.53,WeatherDisplay:10.37,2013-01-12 01:47:00,
2013-01-11 20:52:00,35.0,34.2,30.84,SW,215,0.0,0.0,97,0.00,CLR,CLR,0.53,WeatherDisplay:10.37,2013-01-12 01:52:00,
2013-01-11 20:57:00,35.1,34.3,30.83,SW,215,0.0,0.0,97,0.00,CLR,CLR,0.53,WeatherDisplay:10.37,2013-01-12 01:57:00,
2013-01-11 21:02:00,35.1,34.3,30.83,SW,215,0.0,0.0,97,0.00,CLR,CLR,0.53,WeatherDisplay:10.37,2013-01-12 02:02:00,
2013-01-11 21:07:00,34.8,34.1,30.84,SW,215,0.0,0.0,97,0.00,CLR,CLR,0.53,WeatherDisplay:10.37,2013-01-12 02:07:00,
2013-01-11 21:12:00,34.8,34.0,30.82,SW,215,0.0,0.0,97,0.00,CLR,CLR,0.53,WeatherDisplay:10.37,2013-01-12 02:12:00,
2013-01-11 21:17:00,34.8,34.0,30.83,SW,215,0.0,2.0,97,0.00,CLR,CLR,0.53,WeatherDisplay:10.37,2013-01-12 02:17:00,
2013-01-11 21:22:00,35.2,34.4,30.83,SW,215,0.0,0.0,97,0.00,CLR,CLR,0.53,WeatherDisplay:10.37,2013-01-12 02:22:00,
2013-01-11 21:27:00,35.7,34.9,30.84,SW,215,0.0,0.0,97,0.00,CLR,CLR,0.53,WeatherDisplay:10.37,2013-01-12 02:27:00,
2013-01-11 21:32:00,35.4,34.9,30.84,SW,215,0.0,2.0,98,0.00,CLR,CLR,0.53,WeatherDisplay:10.37,2013-01-12 02:32:00,
2013-01-11 21:37:00,35.1,34.3,30.84,SW,215,0.0,2.0,97,0.00,CLR,CLR,0.53,WeatherDisplay:10.37,2013-01-12 02:37:00,
2013-01-11 21:42:00,35.1,34.4,30.83,SW,215,0.0,2.0,97,0.00,CLR,CLR,0.53,WeatherDisplay:10.37,2013-01-12 02:42:00,
2013-01-11 21:47:00,35.2,34.4,30.83,SW,215,0.0,0.0,97,0.00,CLR,CLR,0.53,WeatherDisplay:10.37,2013-01-12 02:47:00,
2013-01-11 21:52:00,35.4,34.9,30.84,SW,215,0.0,0.0,98,0.00,CLR,CLR,0.53,WeatherDisplay:10.37,2013-01-12 02:52:00,
2013-01-11 21:57:00,35.8,35.3,30.83,SW,215,0.0,0.0,98,0.00,CLR,CLR,0.53,WeatherDisplay:10.37,2013-01-12 02:57:00,
2013-01-11 22:02:00,36.0,35.5,30.84,SW,215,0.0,0.0,98,0.00,CLR,CLR,0.53,WeatherDisplay:10.37,2013-01-12 03:02:00,
2013-01-11 22:07:00,35.7,34.9,30.83,SW,215,0.0,0.0,97,0.00,CLR,CLR,0.53,WeatherDisplay:10.37,2013-01-12 03:07:00,
2013-01-11 22:12:00,35.2,34.5,30.83,SW,215,0.0,0.0,97,0.00,CLR,CLR,0.53,WeatherDisplay:10.37,2013-01-12 03:12:00,
2013-01-11 22:17:00,35.3,34.8,30.84,SW,215,0.0,1.0,98,0.00,CLR,CLR,0.53,WeatherDisplay:10.37,2013-01-12 03:17:00,
2013-01-11 22:22:00,36.4,35.9,30.84,SW,215,0.0,2.0,98,0.00,CLR,CLR,0.53,WeatherDisplay:10.37,2013-01-12 03:22:00,
2013-01-11 22:32:00,37.7,37.2,30.83,SW,215,0.0,3.0,98,0.00,CLR,CLR,0.53,WeatherDisplay:10.37,2013-01-12 03:32:00,
2013-01-11 22:37:00,37.9,37.4,30.84,SW,215,0.0,0.0,98,0.00,CLR,CLR,0.53,WeatherDisplay:10.37,2013-01-12 03:37:00,
2013-01-11 22:42:00,38.3,37.8,30.83,SW,215,0.0,1.0,98,0.00,CLR,CLR,0.53,WeatherDisplay:10.37,2013-01-12 03:42:00,
2013-01-11 22:47:00,38.8,38.3,30.83,SW,215,0.0,0.0,98,0.00,CLR,CLR,0.53,WeatherDisplay:10.37,2013-01-12 03:47:00,
2013-01-11 22:52:00,38.8,38.3,30.83,SW,215,0.0,0.0,98,0.00,CLR,CLR,0.53,WeatherDisplay:10.37,2013-01-12 03:52:00,
2013-01-11 22:57:00,38.1,37.6,30.83,SW,215,0.0,0.0,98,0.00,CLR,CLR,0.53,WeatherDisplay:10.37,2013-01-12 03:57:00,
2013-01-11 23:02:00,37.6,37.1,30.83,SW,215,0.0,1.0,98,0.00,CLR,CLR,0.53,WeatherDisplay:10.37,2013-01-12 04:02:00,
2013-01-11 23:07:00,37.4,36.9,30.83,SW,215,0.0,0.0,98,0.00,CLR,CLR,0.53,WeatherDisplay:10.37,2013-01-12 04:07:00,
2013-01-11 23:12:00,37.4,36.8,30.83,SW,215,0.0,0.0,98,0.00,CLR,CLR,0.53,WeatherDisplay:10.37,2013-01-12 04:12:00,
2013-01-11 23:17:00,37.2,36.7,30.83,SW,215,1.0,2.0,98,0.00,CLR,CLR,0.53,WeatherDisplay:10.37,2013-01-12 04:17:00,
2013-01-11 23:22:00,36.9,36.3,30.83,SW,215,0.0,2.0,98,0.00,CLR,CLR,0.53,WeatherDisplay:10.37,2013-01-12 04:22:00,
2013-01-11 23:27:00,36.5,36.0,30.84,SW,215,0.0,0.0,98,0.00,CLR,CLR,0.53,WeatherDisplay:10.37,2013-01-12 04:27:00,
2013-01-11 23:32:00,36.4,35.9,30.84,SW,215,0.0,0.0,98,0.00,CLR,CLR,0.53,WeatherDisplay:10.37,2013-01-12 04:32:00,
2013-01-11 23:37:00,36.4,35.6,30.84,SW,215,0.0,0.0,97,0.00,CLR,CLR,0.53,WeatherDisplay:10.37,2013-01-12 04:37:00,
2013-01-11 23:42:00,36.4,35.9,30.84,SW,215,0.0,1.0,98,0.00,CLR,CLR,0.53,WeatherDisplay:10.37,2013-01-12 04:42:00,
2013-01-11 23:47:00,36.7,36.2,30.83,SW,215,0.0,0.0,98,0.00,CLR,CLR,0.53,WeatherDisplay:10.37,2013-01-12 04:47:00,
2013-01-11 23:52:00,36.7,36.2,30.83,SW,215,0.0,0.0,98,0.00,CLR,CLR,0.53,WeatherDisplay:10.37,2013-01-12 04:52:00,
2013-01-11 23:57:00,36.5,36.0,30.83,SW,215,0.0,0.0,98,0.00,CLR,CLR,0.53,WeatherDisplay:10.37,2013-01-12 04:57:00,